sensor_id;sensor_type;location;lat;lon;timestamp;temperature;humidity
59025;DHT22;44806;48.008;13.666;2022-10-17T00:01:56;14.90;99.90
59025;DHT22;44806;48.008;13.666;2022-10-17T00:04:23;14.90;99.90
59025;DHT22;44806;48.008;13.666;2022-10-17T00:06:50;15.00;99.90
59025;DHT22;44806;48.008;13.666;2022-10-17T00:09:17;14.90;99.90
59025;DHT22;44806;48.008;13.666;2022-10-17T00:11:45;14.90;99.90
59025;DHT22;44806;48.008;13.666;2022-10-17T00:14:12;14.90;99.90
59025;DHT22;44806;48.008;13.666;2022-10-17T00:16:39;14.90;99.90
59025;DHT22;44806;48.008;13.666;2022-10-17T00:19:07;14.90;99.90
59025;DHT22;44806;48.008;13.666;2022-10-17T00:21:35;14.90;99.90
59025;DHT22;44806;48.008;13.666;2022-10-17T00:24:03;14.90;99.90
59025;DHT22;44806;48.008;13.666;2022-10-17T00:26:30;14.90;99.90
59025;DHT22;44806;48.008;13.666;2022-10-17T00:28:58;15.00;99.90
59025;DHT22;44806;48.008;13.666;2022-10-17T00:31:25;15.00;99.90
59025;DHT22;44806;48.008;13.666;2022-10-17T00:33:52;15.00;99.90
59025;DHT22;44806;48.008;13.666;2022-10-17T00:36:24;15.00;99.90
59025;DHT22;44806;48.008;13.666;2022-10-17T00:38:54;15.00;99.90
59025;DHT22;44806;48.008;13.666;2022-10-17T00:41:23;15.00;99.90
59025;DHT22;44806;48.008;13.666;2022-10-17T00:43:53;15.00;99.90
59025;DHT22;44806;48.008;13.666;2022-10-17T00:46:22;15.00;99.90
59025;DHT22;44806;48.008;13.666;2022-10-17T00:48:52;15.10;99.90
59025;DHT22;44806;48.008;13.666;2022-10-17T00:51:24;15.10;99.90
59025;DHT22;44806;48.008;13.666;2022-10-17T00:53:52;15.10;99.90
59025;DHT22;44806;48.008;13.666;2022-10-17T00:56:20;15.00;99.90
59025;DHT22;44806;48.008;13.666;2022-10-17T00:58:47;15.10;99.90
59025;DHT22;44806;48.008;13.666;2022-10-17T01:01:14;15.10;99.90
59025;DHT22;44806;48.008;13.666;2022-10-17T01:03:42;15.20;99.90
59025;DHT22;44806;48.008;13.666;2022-10-17T01:06:09;15.20;99.90
59025;DHT22;44806;48.008;13.666;2022-10-17T01:08:41;15.20;99.90
59025;DHT22;44806;48.008;13.666;2022-10-17T01:11:17;15.10;99.90
59025;DHT22;44806;48.008;13.666;2022-10-17T01:13:51;15.20;99.90
59025;DHT22;44806;48.008;13.666;2022-10-17T01:16:28;15.20;99.90
59025;DHT22;44806;48.008;13.666;2022-10-17T01:19:03;15.20;99.90
59025;DHT22;44806;48.008;13.666;2022-10-17T01:21:42;15.20;99.90
59025;DHT22;44806;48.008;13.666;2022-10-17T01:24:45;15.10;99.90
59025;DHT22;44806;48.008;13.666;2022-10-17T01:27:33;15.10;99.90
59025;DHT22;44806;48.008;13.666;2022-10-17T01:30:27;15.10;99.90
59025;DHT22;44806;48.008;13.666;2022-10-17T01:33:05;15.10;99.90
59025;DHT22;44806;48.008;13.666;2022-10-17T01:35:39;15.10;99.90
59025;DHT22;44806;48.008;13.666;2022-10-17T01:38:10;15.10;99.90
59025;DHT22;44806;48.008;13.666;2022-10-17T01:40:43;15.10;99.90
59025;DHT22;44806;48.008;13.666;2022-10-17T01:43:17;15.10;99.90
59025;DHT22;44806;48.008;13.666;2022-10-17T01:45:52;15.10;99.90
59025;DHT22;44806;48.008;13.666;2022-10-17T01:48:26;15.10;99.90
59025;DHT22;44806;48.008;13.666;2022-10-17T01:51:00;15.10;99.90
59025;DHT22;44806;48.008;13.666;2022-10-17T01:53:31;15.10;99.90
59025;DHT22;44806;48.008;13.666;2022-10-17T01:56:01;15.10;99.90
59025;DHT22;44806;48.008;13.666;2022-10-17T01:58:32;15.10;99.90
59025;DHT22;44806;48.008;13.666;2022-10-17T02:01:02;15.10;99.90
59025;DHT22;44806;48.008;13.666;2022-10-17T02:03:33;15.10;99.90
59025;DHT22;44806;48.008;13.666;2022-10-17T02:06:01;15.10;99.90
59025;DHT22;44806;48.008;13.666;2022-10-17T02:08:38;15.10;99.90
59025;DHT22;44806;48.008;13.666;2022-10-17T02:11:10;15.10;99.90
59025;DHT22;44806;48.008;13.666;2022-10-17T02:13:55;15.10;99.90
59025;DHT22;44806;48.008;13.666;2022-10-17T02:16:32;15.10;99.90
59025;DHT22;44806;48.008;13.666;2022-10-17T02:19:18;15.10;99.90
59025;DHT22;44806;48.008;13.666;2022-10-17T02:21:56;15.00;99.90
59025;DHT22;44806;48.008;13.666;2022-10-17T02:24:31;15.00;99.90
59025;DHT22;44806;48.008;13.666;2022-10-17T02:27:04;15.00;99.90
59025;DHT22;44806;48.008;13.666;2022-10-17T02:29:35;14.90;99.90
59025;DHT22;44806;48.008;13.666;2022-10-17T02:32:06;14.90;99.90
59025;DHT22;44806;48.008;13.666;2022-10-17T02:34:38;14.90;99.90
59025;DHT22;44806;48.008;13.666;2022-10-17T02:37:09;14.90;99.90
59025;DHT22;44806;48.008;13.666;2022-10-17T02:39:38;15.00;99.90
59025;DHT22;44806;48.008;13.666;2022-10-17T02:42:09;14.90;99.90
59025;DHT22;44806;48.008;13.666;2022-10-17T02:44:40;14.90;99.90
59025;DHT22;44806;48.008;13.666;2022-10-17T02:47:14;14.90;99.90
59025;DHT22;44806;48.008;13.666;2022-10-17T02:49:48;14.80;99.90
59025;DHT22;44806;48.008;13.666;2022-10-17T02:52:21;14.80;99.90
59025;DHT22;44806;48.008;13.666;2022-10-17T02:54:53;14.90;99.90
59025;DHT22;44806;48.008;13.666;2022-10-17T02:57:27;14.80;99.90
59025;DHT22;44806;48.008;13.666;2022-10-17T02:59:57;14.80;99.90
59025;DHT22;44806;48.008;13.666;2022-10-17T03:02:25;14.70;99.90
59025;DHT22;44806;48.008;13.666;2022-10-17T03:04:53;14.70;99.90
59025;DHT22;44806;48.008;13.666;2022-10-17T03:07:21;14.80;99.90
59025;DHT22;44806;48.008;13.666;2022-10-17T03:09:48;14.80;99.90
59025;DHT22;44806;48.008;13.666;2022-10-17T03:12:15;14.60;99.90
59025;DHT22;44806;48.008;13.666;2022-10-17T03:14:42;14.60;99.90
59025;DHT22;44806;48.008;13.666;2022-10-17T03:17:09;14.60;99.90
59025;DHT22;44806;48.008;13.666;2022-10-17T03:19:36;14.60;99.90
59025;DHT22;44806;48.008;13.666;2022-10-17T03:22:05;14.60;99.90
59025;DHT22;44806;48.008;13.666;2022-10-17T03:24:32;14.60;99.90
59025;DHT22;44806;48.008;13.666;2022-10-17T03:26:59;14.60;99.90
59025;DHT22;44806;48.008;13.666;2022-10-17T03:29:27;14.60;99.90
59025;DHT22;44806;48.008;13.666;2022-10-17T03:31:54;14.50;99.90
59025;DHT22;44806;48.008;13.666;2022-10-17T03:34:21;14.60;99.90
59025;DHT22;44806;48.008;13.666;2022-10-17T03:36:48;14.60;99.90
59025;DHT22;44806;48.008;13.666;2022-10-17T03:39:16;14.60;99.90
59025;DHT22;44806;48.008;13.666;2022-10-17T03:41:44;14.50;99.90
59025;DHT22;44806;48.008;13.666;2022-10-17T03:44:11;14.50;99.90
59025;DHT22;44806;48.008;13.666;2022-10-17T03:46:38;14.40;99.90
59025;DHT22;44806;48.008;13.666;2022-10-17T03:49:05;14.40;99.90
59025;DHT22;44806;48.008;13.666;2022-10-17T03:51:33;14.50;99.90
59025;DHT22;44806;48.008;13.666;2022-10-17T03:54:00;14.50;99.90
59025;DHT22;44806;48.008;13.666;2022-10-17T03:56:28;14.50;99.90
59025;DHT22;44806;48.008;13.666;2022-10-17T03:58:55;14.50;99.90
59025;DHT22;44806;48.008;13.666;2022-10-17T04:01:23;14.50;99.90
59025;DHT22;44806;48.008;13.666;2022-10-17T04:03:52;14.50;99.90
59025;DHT22;44806;48.008;13.666;2022-10-17T04:06:20;14.50;99.90
59025;DHT22;44806;48.008;13.666;2022-10-17T04:08:47;14.50;99.90
59025;DHT22;44806;48.008;13.666;2022-10-17T04:11:17;14.50;99.90
59025;DHT22;44806;48.008;13.666;2022-10-17T04:13:45;14.50;99.90
59025;DHT22;44806;48.008;13.666;2022-10-17T04:16:15;14.50;99.90
59025;DHT22;44806;48.008;13.666;2022-10-17T04:18:43;14.60;99.90
59025;DHT22;44806;48.008;13.666;2022-10-17T04:21:10;14.50;99.90
59025;DHT22;44806;48.008;13.666;2022-10-17T04:23:38;14.60;99.90
59025;DHT22;44806;48.008;13.666;2022-10-17T04:26:06;14.60;99.90
59025;DHT22;44806;48.008;13.666;2022-10-17T04:28:33;14.60;99.90
59025;DHT22;44806;48.008;13.666;2022-10-17T04:31:05;14.60;99.90
59025;DHT22;44806;48.008;13.666;2022-10-17T04:33:34;14.60;99.90
59025;DHT22;44806;48.008;13.666;2022-10-17T04:36:02;14.50;99.90
59025;DHT22;44806;48.008;13.666;2022-10-17T04:38:31;14.50;99.90
59025;DHT22;44806;48.008;13.666;2022-10-17T04:40:58;14.60;99.90
59025;DHT22;44806;48.008;13.666;2022-10-17T04:43:27;14.60;99.90
59025;DHT22;44806;48.008;13.666;2022-10-17T04:45:56;14.50;99.90
59025;DHT22;44806;48.008;13.666;2022-10-17T04:48:25;14.50;99.90
59025;DHT22;44806;48.008;13.666;2022-10-17T04:50:55;14.40;99.90
59025;DHT22;44806;48.008;13.666;2022-10-17T04:53:23;14.30;99.90
59025;DHT22;44806;48.008;13.666;2022-10-17T04:55:50;14.40;99.90
59025;DHT22;44806;48.008;13.666;2022-10-17T04:58:18;14.40;99.90
59025;DHT22;44806;48.008;13.666;2022-10-17T05:00:45;14.40;99.90
59025;DHT22;44806;48.008;13.666;2022-10-17T05:03:13;14.40;99.90
59025;DHT22;44806;48.008;13.666;2022-10-17T05:05:42;14.40;99.90
59025;DHT22;44806;48.008;13.666;2022-10-17T05:08:10;14.40;99.90
59025;DHT22;44806;48.008;13.666;2022-10-17T05:10:39;14.40;99.90
59025;DHT22;44806;48.008;13.666;2022-10-17T05:13:07;14.40;99.90
59025;DHT22;44806;48.008;13.666;2022-10-17T05:15:34;14.40;99.90
59025;DHT22;44806;48.008;13.666;2022-10-17T05:18:05;14.30;99.90
59025;DHT22;44806;48.008;13.666;2022-10-17T05:20:32;14.30;99.90
59025;DHT22;44806;48.008;13.666;2022-10-17T05:23:01;14.20;99.90
59025;DHT22;44806;48.008;13.666;2022-10-17T05:25:28;14.20;99.90
59025;DHT22;44806;48.008;13.666;2022-10-17T05:27:56;14.30;99.90
59025;DHT22;44806;48.008;13.666;2022-10-17T05:30:23;14.30;99.90
59025;DHT22;44806;48.008;13.666;2022-10-17T05:32:52;14.20;99.90
59025;DHT22;44806;48.008;13.666;2022-10-17T05:35:20;14.30;99.90
59025;DHT22;44806;48.008;13.666;2022-10-17T05:37:48;14.30;99.90
59025;DHT22;44806;48.008;13.666;2022-10-17T05:40:17;14.30;99.90
59025;DHT22;44806;48.008;13.666;2022-10-17T05:42:48;14.20;99.90
59025;DHT22;44806;48.008;13.666;2022-10-17T05:45:15;14.20;99.90
59025;DHT22;44806;48.008;13.666;2022-10-17T05:47:42;14.30;99.90
59025;DHT22;44806;48.008;13.666;2022-10-17T05:50:09;14.20;99.90
59025;DHT22;44806;48.008;13.666;2022-10-17T05:52:37;14.30;99.90
59025;DHT22;44806;48.008;13.666;2022-10-17T05:55:05;14.30;99.90
59025;DHT22;44806;48.008;13.666;2022-10-17T05:57:33;14.20;99.90
59025;DHT22;44806;48.008;13.666;2022-10-17T06:00:01;14.20;99.90
59025;DHT22;44806;48.008;13.666;2022-10-17T06:02:28;14.20;99.90
59025;DHT22;44806;48.008;13.666;2022-10-17T06:04:55;14.10;99.90
59025;DHT22;44806;48.008;13.666;2022-10-17T06:07:24;14.20;99.90
59025;DHT22;44806;48.008;13.666;2022-10-17T06:09:51;14.20;99.90
59025;DHT22;44806;48.008;13.666;2022-10-17T06:12:19;14.10;99.90
59025;DHT22;44806;48.008;13.666;2022-10-17T06:14:47;14.20;99.90
59025;DHT22;44806;48.008;13.666;2022-10-17T06:17:14;14.10;99.90
59025;DHT22;44806;48.008;13.666;2022-10-17T06:19:44;14.10;99.90
59025;DHT22;44806;48.008;13.666;2022-10-17T06:22:12;14.10;99.90
59025;DHT22;44806;48.008;13.666;2022-10-17T06:24:39;14.10;99.90
59025;DHT22;44806;48.008;13.666;2022-10-17T06:27:08;14.20;99.90
59025;DHT22;44806;48.008;13.666;2022-10-17T06:29:38;14.20;99.90
59025;DHT22;44806;48.008;13.666;2022-10-17T06:32:07;14.20;99.90
59025;DHT22;44806;48.008;13.666;2022-10-17T06:34:34;14.20;99.90
59025;DHT22;44806;48.008;13.666;2022-10-17T06:37:01;14.10;99.90
59025;DHT22;44806;48.008;13.666;2022-10-17T06:39:29;14.00;99.90
59025;DHT22;44806;48.008;13.666;2022-10-17T06:41:58;14.00;99.90
59025;DHT22;44806;48.008;13.666;2022-10-17T06:44:28;14.10;99.90
59025;DHT22;44806;48.008;13.666;2022-10-17T06:46:57;14.10;99.90
59025;DHT22;44806;48.008;13.666;2022-10-17T06:49:25;14.10;99.90
59025;DHT22;44806;48.008;13.666;2022-10-17T06:51:53;14.10;99.90
59025;DHT22;44806;48.008;13.666;2022-10-17T06:54:20;14.20;99.90
59025;DHT22;44806;48.008;13.666;2022-10-17T06:56:47;14.20;99.90
59025;DHT22;44806;48.008;13.666;2022-10-17T06:59:15;14.30;99.90
59025;DHT22;44806;48.008;13.666;2022-10-17T07:01:42;14.30;99.90
59025;DHT22;44806;48.008;13.666;2022-10-17T07:04:09;14.40;99.90
59025;DHT22;44806;48.008;13.666;2022-10-17T07:06:38;14.30;99.90
59025;DHT22;44806;48.008;13.666;2022-10-17T07:09:06;14.30;99.90
59025;DHT22;44806;48.008;13.666;2022-10-17T07:11:33;14.40;99.90
59025;DHT22;44806;48.008;13.666;2022-10-17T07:14:01;14.40;99.90
59025;DHT22;44806;48.008;13.666;2022-10-17T07:16:28;14.50;99.90
59025;DHT22;44806;48.008;13.666;2022-10-17T07:18:55;14.50;99.90
59025;DHT22;44806;48.008;13.666;2022-10-17T07:21:23;14.50;99.90
59025;DHT22;44806;48.008;13.666;2022-10-17T07:23:51;14.60;99.90
59025;DHT22;44806;48.008;13.666;2022-10-17T07:26:19;14.60;99.90
59025;DHT22;44806;48.008;13.666;2022-10-17T07:28:52;14.60;99.90
59025;DHT22;44806;48.008;13.666;2022-10-17T07:31:20;14.60;99.90
59025;DHT22;44806;48.008;13.666;2022-10-17T07:33:50;14.70;99.90
59025;DHT22;44806;48.008;13.666;2022-10-17T07:36:23;14.80;99.90
59025;DHT22;44806;48.008;13.666;2022-10-17T07:38:57;14.80;99.90
59025;DHT22;44806;48.008;13.666;2022-10-17T07:41:25;14.80;99.90
59025;DHT22;44806;48.008;13.666;2022-10-17T07:43:52;14.80;99.90
59025;DHT22;44806;48.008;13.666;2022-10-17T07:46:19;14.90;99.90
59025;DHT22;44806;48.008;13.666;2022-10-17T07:48:49;14.90;99.90
59025;DHT22;44806;48.008;13.666;2022-10-17T07:51:18;14.90;99.90
59025;DHT22;44806;48.008;13.666;2022-10-17T07:53:46;14.90;99.90
59025;DHT22;44806;48.008;13.666;2022-10-17T07:56:15;14.90;99.90
59025;DHT22;44806;48.008;13.666;2022-10-17T07:58:43;15.00;99.90
59025;DHT22;44806;48.008;13.666;2022-10-17T08:01:13;15.10;99.90
59025;DHT22;44806;48.008;13.666;2022-10-17T08:03:44;15.20;99.90
59025;DHT22;44806;48.008;13.666;2022-10-17T08:06:13;15.30;99.90
59025;DHT22;44806;48.008;13.666;2022-10-17T08:08:41;15.40;99.90
59025;DHT22;44806;48.008;13.666;2022-10-17T08:11:11;15.50;99.90
59025;DHT22;44806;48.008;13.666;2022-10-17T08:13:40;15.50;99.90
59025;DHT22;44806;48.008;13.666;2022-10-17T08:16:11;15.50;99.90
59025;DHT22;44806;48.008;13.666;2022-10-17T08:38:52;15.50;99.90
59025;DHT22;44806;48.008;13.666;2022-10-17T08:41:33;15.50;99.90
59025;DHT22;44806;48.008;13.666;2022-10-17T08:44:13;15.50;99.90
59025;DHT22;44806;48.008;13.666;2022-10-17T08:46:47;15.50;99.90
59025;DHT22;44806;48.008;13.666;2022-10-17T08:49:21;15.50;99.90
59025;DHT22;44806;48.008;13.666;2022-10-17T08:51:53;15.60;99.90
59025;DHT22;44806;48.008;13.666;2022-10-17T08:54:28;15.60;99.90
59025;DHT22;44806;48.008;13.666;2022-10-17T08:56:57;15.70;99.90
59025;DHT22;44806;48.008;13.666;2022-10-17T08:59:26;15.80;99.90
59025;DHT22;44806;48.008;13.666;2022-10-17T09:01:58;15.80;99.90
59025;DHT22;44806;48.008;13.666;2022-10-17T09:04:45;15.70;99.90
59025;DHT22;44806;48.008;13.666;2022-10-17T09:07:18;15.70;99.90
59025;DHT22;44806;48.008;13.666;2022-10-17T09:09:56;15.70;99.90
59025;DHT22;44806;48.008;13.666;2022-10-17T09:12:33;15.70;99.90
59025;DHT22;44806;48.008;13.666;2022-10-17T09:15:34;15.70;99.90
59025;DHT22;44806;48.008;13.666;2022-10-17T09:18:14;15.80;99.90
59025;DHT22;44806;48.008;13.666;2022-10-17T09:20:45;15.80;99.90
59025;DHT22;44806;48.008;13.666;2022-10-17T09:23:16;15.70;99.90
59025;DHT22;44806;48.008;13.666;2022-10-17T09:25:47;15.70;99.90
59025;DHT22;44806;48.008;13.666;2022-10-17T09:28:19;15.70;99.90
59025;DHT22;44806;48.008;13.666;2022-10-17T09:30:53;15.50;99.90
59025;DHT22;44806;48.008;13.666;2022-10-17T09:33:25;15.40;99.90
59025;DHT22;44806;48.008;13.666;2022-10-17T09:35:55;15.50;99.90
59025;DHT22;44806;48.008;13.666;2022-10-17T09:38:28;15.60;99.90
59025;DHT22;44806;48.008;13.666;2022-10-17T09:41:00;15.70;99.90
59025;DHT22;44806;48.008;13.666;2022-10-17T09:43:28;15.80;99.90
59025;DHT22;44806;48.008;13.666;2022-10-17T09:46:02;15.80;99.90
59025;DHT22;44806;48.008;13.666;2022-10-17T09:48:36;15.90;99.90
59025;DHT22;44806;48.008;13.666;2022-10-17T09:51:08;15.80;99.90
59025;DHT22;44806;48.008;13.666;2022-10-17T09:53:38;15.80;99.90
59025;DHT22;44806;48.008;13.666;2022-10-17T09:56:10;15.90;99.90
59025;DHT22;44806;48.008;13.666;2022-10-17T09:58:40;15.90;99.90
59025;DHT22;44806;48.008;13.666;2022-10-17T10:01:17;16.00;99.90
59025;DHT22;44806;48.008;13.666;2022-10-17T10:03:44;16.00;99.90
59025;DHT22;44806;48.008;13.666;2022-10-17T10:06:15;16.10;99.90
59025;DHT22;44806;48.008;13.666;2022-10-17T10:08:50;15.90;99.90
59025;DHT22;44806;48.008;13.666;2022-10-17T10:11:23;15.90;99.90
59025;DHT22;44806;48.008;13.666;2022-10-17T10:13:51;16.00;99.90
59025;DHT22;44806;48.008;13.666;2022-10-17T10:16:21;16.00;99.90
59025;DHT22;44806;48.008;13.666;2022-10-17T10:18:50;15.90;99.90
59025;DHT22;44806;48.008;13.666;2022-10-17T10:21:19;15.90;99.90
59025;DHT22;44806;48.008;13.666;2022-10-17T10:24:03;15.90;99.90
59025;DHT22;44806;48.008;13.666;2022-10-17T10:26:38;15.80;99.90
59025;DHT22;44806;48.008;13.666;2022-10-17T10:29:20;15.80;99.90
59025;DHT22;44806;48.008;13.666;2022-10-17T10:31:50;15.80;99.90
59025;DHT22;44806;48.008;13.666;2022-10-17T10:34:20;15.90;99.90
59025;DHT22;44806;48.008;13.666;2022-10-17T10:36:52;15.90;99.90
59025;DHT22;44806;48.008;13.666;2022-10-17T10:39:34;16.00;99.90
59025;DHT22;44806;48.008;13.666;2022-10-17T10:42:06;16.00;99.90
59025;DHT22;44806;48.008;13.666;2022-10-17T10:44:35;16.00;99.90
59025;DHT22;44806;48.008;13.666;2022-10-17T10:47:08;16.00;99.90
59025;DHT22;44806;48.008;13.666;2022-10-17T10:49:37;16.10;99.90
59025;DHT22;44806;48.008;13.666;2022-10-17T10:52:06;16.20;99.90
59025;DHT22;44806;48.008;13.666;2022-10-17T10:54:38;16.30;99.90
59025;DHT22;44806;48.008;13.666;2022-10-17T10:57:13;16.30;99.90
59025;DHT22;44806;48.008;13.666;2022-10-17T10:59:53;16.40;99.90
59025;DHT22;44806;48.008;13.666;2022-10-17T11:02:29;16.50;99.90
59025;DHT22;44806;48.008;13.666;2022-10-17T11:05:00;16.60;99.90
59025;DHT22;44806;48.008;13.666;2022-10-17T11:07:33;16.70;99.90
59025;DHT22;44806;48.008;13.666;2022-10-17T11:10:09;16.70;99.90
59025;DHT22;44806;48.008;13.666;2022-10-17T11:12:44;16.70;99.90
59025;DHT22;44806;48.008;13.666;2022-10-17T11:15:19;16.80;99.90
59025;DHT22;44806;48.008;13.666;2022-10-17T11:17:53;16.80;99.90
59025;DHT22;44806;48.008;13.666;2022-10-17T11:20:29;16.90;99.90
59025;DHT22;44806;48.008;13.666;2022-10-17T11:23:10;16.90;99.90
59025;DHT22;44806;48.008;13.666;2022-10-17T11:25:39;16.90;99.90
59025;DHT22;44806;48.008;13.666;2022-10-17T11:28:13;17.00;99.90
59025;DHT22;44806;48.008;13.666;2022-10-17T11:30:45;17.00;99.90
59025;DHT22;44806;48.008;13.666;2022-10-17T11:33:21;17.00;99.90
59025;DHT22;44806;48.008;13.666;2022-10-17T11:35:51;17.00;99.90
59025;DHT22;44806;48.008;13.666;2022-10-17T11:38:29;17.00;99.90
59025;DHT22;44806;48.008;13.666;2022-10-17T11:41:01;17.00;99.90
59025;DHT22;44806;48.008;13.666;2022-10-17T11:43:35;17.00;99.90
59025;DHT22;44806;48.008;13.666;2022-10-17T11:46:09;17.10;99.90
59025;DHT22;44806;48.008;13.666;2022-10-17T11:48:41;17.10;99.90
59025;DHT22;44806;48.008;13.666;2022-10-17T11:51:13;17.20;99.90
59025;DHT22;44806;48.008;13.666;2022-10-17T11:53:45;17.20;99.90
59025;DHT22;44806;48.008;13.666;2022-10-17T11:56:18;17.30;99.90
59025;DHT22;44806;48.008;13.666;2022-10-17T11:58:53;17.30;99.90
59025;DHT22;44806;48.008;13.666;2022-10-17T12:01:29;17.30;99.90
59025;DHT22;44806;48.008;13.666;2022-10-17T12:04:10;17.30;99.90
59025;DHT22;44806;48.008;13.666;2022-10-17T12:06:52;17.40;99.90
59025;DHT22;44806;48.008;13.666;2022-10-17T12:09:31;17.40;99.90
59025;DHT22;44806;48.008;13.666;2022-10-17T12:12:01;17.40;99.90
59025;DHT22;44806;48.008;13.666;2022-10-17T12:14:37;17.40;99.90
59025;DHT22;44806;48.008;13.666;2022-10-17T12:17:24;17.40;99.90
59025;DHT22;44806;48.008;13.666;2022-10-17T12:19:54;17.40;99.90
59025;DHT22;44806;48.008;13.666;2022-10-17T12:22:46;17.40;99.90
59025;DHT22;44806;48.008;13.666;2022-10-17T12:25:18;17.40;99.90
59025;DHT22;44806;48.008;13.666;2022-10-17T12:27:47;17.50;99.90
59025;DHT22;44806;48.008;13.666;2022-10-17T12:47:37;17.50;99.90
59025;DHT22;44806;48.008;13.666;2022-10-17T12:53:05;17.50;99.90
59025;DHT22;44806;48.008;13.666;2022-10-17T12:55:35;17.50;99.90
59025;DHT22;44806;48.008;13.666;2022-10-17T12:58:04;17.50;99.90
59025;DHT22;44806;48.008;13.666;2022-10-17T13:00:36;17.50;99.90
59025;DHT22;44806;48.008;13.666;2022-10-17T13:03:13;17.50;99.90
59025;DHT22;44806;48.008;13.666;2022-10-17T13:05:46;17.40;99.90
59025;DHT22;44806;48.008;13.666;2022-10-17T13:08:16;17.40;99.90
59025;DHT22;44806;48.008;13.666;2022-10-17T13:10:46;17.40;99.90
59025;DHT22;44806;48.008;13.666;2022-10-17T13:13:17;17.40;99.90
59025;DHT22;44806;48.008;13.666;2022-10-17T13:15:47;17.40;99.90
59025;DHT22;44806;48.008;13.666;2022-10-17T13:18:20;17.30;99.90
59025;DHT22;44806;48.008;13.666;2022-10-17T13:20:56;17.30;99.90
59025;DHT22;44806;48.008;13.666;2022-10-17T13:23:25;17.30;99.90
59025;DHT22;44806;48.008;13.666;2022-10-17T13:26:15;17.30;99.90
59025;DHT22;44806;48.008;13.666;2022-10-17T13:28:45;17.30;99.90
59025;DHT22;44806;48.008;13.666;2022-10-17T13:31:31;17.30;99.90
59025;DHT22;44806;48.008;13.666;2022-10-17T13:34:01;17.30;99.90
59025;DHT22;44806;48.008;13.666;2022-10-17T13:36:29;17.30;99.90
59025;DHT22;44806;48.008;13.666;2022-10-17T13:38:58;17.20;99.90
59025;DHT22;44806;48.008;13.666;2022-10-17T13:41:29;17.10;99.90
59025;DHT22;44806;48.008;13.666;2022-10-17T13:44:01;17.10;99.90
59025;DHT22;44806;48.008;13.666;2022-10-17T13:46:32;17.20;99.90
59025;DHT22;44806;48.008;13.666;2022-10-17T13:49:14;17.20;99.90
59025;DHT22;44806;48.008;13.666;2022-10-17T13:51:44;17.10;99.90
59025;DHT22;44806;48.008;13.666;2022-10-17T13:54:27;17.10;99.90
59025;DHT22;44806;48.008;13.666;2022-10-17T13:56:57;17.10;99.90
59025;DHT22;44806;48.008;13.666;2022-10-17T13:59:26;17.10;99.90
59025;DHT22;44806;48.008;13.666;2022-10-17T14:01:55;17.10;99.90
59025;DHT22;44806;48.008;13.666;2022-10-17T14:04:24;17.10;99.90
59025;DHT22;44806;48.008;13.666;2022-10-17T14:06:51;17.10;99.90
59025;DHT22;44806;48.008;13.666;2022-10-17T14:09:24;17.00;99.90
59025;DHT22;44806;48.008;13.666;2022-10-17T14:12:05;17.00;99.90
59025;DHT22;44806;48.008;13.666;2022-10-17T14:14:36;17.00;99.90
59025;DHT22;44806;48.008;13.666;2022-10-17T14:17:14;17.00;99.90
59025;DHT22;44806;48.008;13.666;2022-10-17T14:19:52;17.00;99.90
59025;DHT22;44806;48.008;13.666;2022-10-17T14:22:26;17.00;99.90
59025;DHT22;44806;48.008;13.666;2022-10-17T14:24:54;17.00;99.90
59025;DHT22;44806;48.008;13.666;2022-10-17T14:27:30;17.10;99.90
59025;DHT22;44806;48.008;13.666;2022-10-17T14:30:00;17.10;99.90
59025;DHT22;44806;48.008;13.666;2022-10-17T14:32:29;17.00;99.90
59025;DHT22;44806;48.008;13.666;2022-10-17T14:35:01;17.00;99.90
59025;DHT22;44806;48.008;13.666;2022-10-17T14:47:47;16.90;99.90
59025;DHT22;44806;48.008;13.666;2022-10-17T14:50:23;17.00;99.90
59025;DHT22;44806;48.008;13.666;2022-10-17T14:53:01;17.00;99.90
59025;DHT22;44806;48.008;13.666;2022-10-17T14:55:31;17.00;99.90
59025;DHT22;44806;48.008;13.666;2022-10-17T14:57:59;17.00;99.90
59025;DHT22;44806;48.008;13.666;2022-10-17T15:00:27;17.00;99.90
59025;DHT22;44806;48.008;13.666;2022-10-17T15:02:54;17.00;99.90
59025;DHT22;44806;48.008;13.666;2022-10-17T15:05:23;16.90;99.90
59025;DHT22;44806;48.008;13.666;2022-10-17T15:07:51;16.90;99.90
59025;DHT22;44806;48.008;13.666;2022-10-17T15:10:31;16.80;99.90
59025;DHT22;44806;48.008;13.666;2022-10-17T15:13:00;16.90;99.90
59025;DHT22;44806;48.008;13.666;2022-10-17T15:15:28;16.90;99.90
59025;DHT22;44806;48.008;13.666;2022-10-17T15:17:55;16.90;99.90
59025;DHT22;44806;48.008;13.666;2022-10-17T15:20:25;17.00;99.90
59025;DHT22;44806;48.008;13.666;2022-10-17T15:22:55;16.90;99.90
59025;DHT22;44806;48.008;13.666;2022-10-17T15:25:24;16.90;99.90
59025;DHT22;44806;48.008;13.666;2022-10-17T15:27:52;16.80;99.90
59025;DHT22;44806;48.008;13.666;2022-10-17T15:30:22;16.70;99.90
59025;DHT22;44806;48.008;13.666;2022-10-17T15:32:50;16.70;99.90
59025;DHT22;44806;48.008;13.666;2022-10-17T15:35:18;16.70;99.90
59025;DHT22;44806;48.008;13.666;2022-10-17T15:37:48;16.80;99.90
59025;DHT22;44806;48.008;13.666;2022-10-17T15:40:17;16.70;99.90
59025;DHT22;44806;48.008;13.666;2022-10-17T15:42:46;16.70;99.90
59025;DHT22;44806;48.008;13.666;2022-10-17T15:45:15;16.70;99.90
59025;DHT22;44806;48.008;13.666;2022-10-17T15:47:48;16.70;99.90
59025;DHT22;44806;48.008;13.666;2022-10-17T15:50:16;16.70;99.90
59025;DHT22;44806;48.008;13.666;2022-10-17T15:52:44;16.70;99.90
59025;DHT22;44806;48.008;13.666;2022-10-17T15:55:13;16.70;99.90
59025;DHT22;44806;48.008;13.666;2022-10-17T15:57:44;16.70;99.90
59025;DHT22;44806;48.008;13.666;2022-10-17T16:00:15;16.70;99.90
59025;DHT22;44806;48.008;13.666;2022-10-17T16:02:43;16.60;99.90
59025;DHT22;44806;48.008;13.666;2022-10-17T16:05:13;16.60;99.90
59025;DHT22;44806;48.008;13.666;2022-10-17T16:07:41;16.60;99.90
59025;DHT22;44806;48.008;13.666;2022-10-17T16:10:13;16.60;99.90
59025;DHT22;44806;48.008;13.666;2022-10-17T16:12:41;16.60;99.90
59025;DHT22;44806;48.008;13.666;2022-10-17T16:15:13;16.60;99.90
59025;DHT22;44806;48.008;13.666;2022-10-17T16:17:41;16.60;99.90
59025;DHT22;44806;48.008;13.666;2022-10-17T16:20:09;16.60;99.90
59025;DHT22;44806;48.008;13.666;2022-10-17T16:22:39;16.50;99.90
59025;DHT22;44806;48.008;13.666;2022-10-17T16:25:17;16.50;99.90
59025;DHT22;44806;48.008;13.666;2022-10-17T16:27:46;16.50;99.90
59025;DHT22;44806;48.008;13.666;2022-10-17T16:30:13;16.40;99.90